sensor_id;sensor_type;location;lat;lon;timestamp;pressure;altitude;pressure_sealevel;temperature;humidity
72486;BME280;60509;47.308;-122.428;2023-04-24T00:02:17;100304.48;;;11.66;29.36
72486;BME280;60509;47.308;-122.428;2023-04-24T00:04:42;100298.36;;;13.60;27.97
72486;BME280;60509;47.308;-122.428;2023-04-24T00:07:07;100294.80;;;14.43;27.11
72486;BME280;60509;47.308;-122.428;2023-04-24T00:09:32;100289.97;;;13.19;27.73
72486;BME280;60509;47.308;-122.428;2023-04-24T00:11:57;100284.89;;;15.37;26.50
72486;BME280;60509;47.308;-122.428;2023-04-24T00:14:23;100289.63;;;13.44;27.50
72486;BME280;60509;47.308;-122.428;2023-04-24T00:16:48;100292.12;;;13.76;27.63
72486;BME280;60509;47.308;-122.428;2023-04-24T00:19:13;100288.42;;;13.99;27.43
72486;BME280;60509;47.308;-122.428;2023-04-24T00:21:39;100289.31;;;14.05;27.75
72486;BME280;60509;47.308;-122.428;2023-04-24T00:24:04;100291.93;;;13.87;27.48
72486;BME280;60509;47.308;-122.428;2023-04-24T00:26:29;100292.25;;;14.82;27.37
72486;BME280;60509;47.308;-122.428;2023-04-24T00:28:56;100295.32;;;12.82;28.50
72486;BME280;60509;47.308;-122.428;2023-04-24T00:31:22;100293.47;;;14.53;28.15
72486;BME280;60509;47.308;-122.428;2023-04-24T00:33:47;100292.52;;;14.53;27.39
72486;BME280;60509;47.308;-122.428;2023-04-24T00:36:12;100296.68;;;14.32;27.47
72486;BME280;60509;47.308;-122.428;2023-04-24T00:38:38;100292.64;;;13.81;28.24
72486;BME280;60509;47.308;-122.428;2023-04-24T00:41:04;100293.35;;;13.23;28.56
72486;BME280;60509;47.308;-122.428;2023-04-24T00:43:30;100289.93;;;15.27;28.42
72486;BME280;60509;47.308;-122.428;2023-04-24T00:45:55;100289.40;;;13.94;29.41
72486;BME280;60509;47.308;-122.428;2023-04-24T00:48:21;100287.97;;;15.13;28.22
72486;BME280;60509;47.308;-122.428;2023-04-24T00:50:46;100286.33;;;14.05;29.24
72486;BME280;60509;47.308;-122.428;2023-04-24T00:53:11;100283.36;;;14.51;29.09
72486;BME280;60509;47.308;-122.428;2023-04-24T00:55:36;100282.11;;;15.61;28.81
72486;BME280;60509;47.308;-122.428;2023-04-24T00:58:01;100279.73;;;16.14;28.50
72486;BME280;60509;47.308;-122.428;2023-04-24T01:00:26;100280.03;;;15.45;28.85
72486;BME280;60509;47.308;-122.428;2023-04-24T01:02:52;100274.20;;;15.42;28.71
72486;BME280;60509;47.308;-122.428;2023-04-24T01:05:16;100278.94;;;15.37;28.57
72486;BME280;60509;47.308;-122.428;2023-04-24T01:07:43;100273.21;;;14.85;29.00
72486;BME280;60509;47.308;-122.428;2023-04-24T01:10:08;100272.73;;;15.18;28.43
72486;BME280;60509;47.308;-122.428;2023-04-24T01:12:31;100273.87;;;15.23;28.32
72486;BME280;60509;47.308;-122.428;2023-04-24T01:14:57;100268.55;;;15.25;28.60
72486;BME280;60509;47.308;-122.428;2023-04-24T01:17:21;100265.08;;;14.43;28.49
72486;BME280;60509;47.308;-122.428;2023-04-24T01:19:46;100264.95;;;13.66;29.10
72486;BME280;60509;47.308;-122.428;2023-04-24T01:22:13;100263.48;;;13.29;29.20
72486;BME280;60509;47.308;-122.428;2023-04-24T01:24:37;100263.31;;;13.68;29.24
72486;BME280;60509;47.308;-122.428;2023-04-24T01:27:01;100265.46;;;13.88;28.44
72486;BME280;60509;47.308;-122.428;2023-04-24T01:29:26;100269.13;;;11.54;29.88
72486;BME280;60509;47.308;-122.428;2023-04-24T01:31:51;100266.31;;;11.24;30.30
72486;BME280;60509;47.308;-122.428;2023-04-24T01:34:17;100267.50;;;11.53;30.51
72486;BME280;60509;47.308;-122.428;2023-04-24T01:36:42;100264.56;;;12.40;29.75
72486;BME280;60509;47.308;-122.428;2023-04-24T01:39:06;100261.76;;;12.93;29.23
72486;BME280;60509;47.308;-122.428;2023-04-24T01:41:32;100259.54;;;12.64;29.33
72486;BME280;60509;47.308;-122.428;2023-04-24T01:43:57;100253.38;;;14.08;28.33
72486;BME280;60509;47.308;-122.428;2023-04-24T01:46:22;100248.83;;;13.72;28.48
72486;BME280;60509;47.308;-122.428;2023-04-24T01:48:47;100247.07;;;14.39;27.86
72486;BME280;60509;47.308;-122.428;2023-04-24T01:51:12;100244.30;;;14.79;27.55
72486;BME280;60509;47.308;-122.428;2023-04-24T01:53:37;100244.36;;;14.07;28.24
72486;BME280;60509;47.308;-122.428;2023-04-24T01:56:02;100243.44;;;14.75;27.96
72486;BME280;60509;47.308;-122.428;2023-04-24T01:58:27;100240.64;;;14.23;28.47
72486;BME280;60509;47.308;-122.428;2023-04-24T02:00:52;100245.35;;;14.77;27.85
72486;BME280;60509;47.308;-122.428;2023-04-24T02:03:17;100238.39;;;12.85;29.20
72486;BME280;60509;47.308;-122.428;2023-04-24T02:05:44;100238.74;;;13.21;29.58
72486;BME280;60509;47.308;-122.428;2023-04-24T02:08:07;100235.04;;;14.33;29.27
72486;BME280;60509;47.308;-122.428;2023-04-24T02:10:32;100234.80;;;15.00;28.44
72486;BME280;60509;47.308;-122.428;2023-04-24T02:12:57;100234.29;;;15.64;28.33
72486;BME280;60509;47.308;-122.428;2023-04-24T02:15:22;100236.12;;;13.41;29.11
72486;BME280;60509;47.308;-122.428;2023-04-24T02:17:47;100233.22;;;12.40;30.15
72486;BME280;60509;47.308;-122.428;2023-04-24T02:20:13;100231.16;;;13.12;29.70
72486;BME280;60509;47.308;-122.428;2023-04-24T02:22:39;100227.27;;;12.61;30.27
72486;BME280;60509;47.308;-122.428;2023-04-24T02:25:05;100221.89;;;14.26;28.76
72486;BME280;60509;47.308;-122.428;2023-04-24T02:27:29;100221.99;;;15.50;28.24
72486;BME280;60509;47.308;-122.428;2023-04-24T02:29:55;100226.76;;;16.91;27.12
72486;BME280;60509;47.308;-122.428;2023-04-24T02:32:21;100218.73;;;17.38;26.53
72486;BME280;60509;47.308;-122.428;2023-04-24T02:34:47;100212.97;;;17.68;26.50
72486;BME280;60509;47.308;-122.428;2023-04-24T02:37:13;100212.69;;;17.06;27.26
72486;BME280;60509;47.308;-122.428;2023-04-24T02:39:39;100210.06;;;16.66;27.91
72486;BME280;60509;47.308;-122.428;2023-04-24T02:42:05;100210.65;;;17.43;27.52
72486;BME280;60509;47.308;-122.428;2023-04-24T02:44:31;100206.16;;;17.83;27.11
72486;BME280;60509;47.308;-122.428;2023-04-24T02:46:57;100201.19;;;17.90;26.80
72486;BME280;60509;47.308;-122.428;2023-04-24T02:49:23;100201.41;;;17.86;27.04
72486;BME280;60509;47.308;-122.428;2023-04-24T02:51:49;100197.05;;;17.69;27.03
72486;BME280;60509;47.308;-122.428;2023-04-24T02:54:15;100195.07;;;17.73;27.02
72486;BME280;60509;47.308;-122.428;2023-04-24T02:56:41;100195.89;;;17.63;26.92
72486;BME280;60509;47.308;-122.428;2023-04-24T02:59:07;100195.01;;;17.15;27.03
72486;BME280;60509;47.308;-122.428;2023-04-24T03:01:33;100191.50;;;17.52;26.98
72486;BME280;60509;47.308;-122.428;2023-04-24T03:03:59;100190.87;;;17.82;26.91
72486;BME280;60509;47.308;-122.428;2023-04-24T03:06:25;100188.72;;;17.64;26.82
72486;BME280;60509;47.308;-122.428;2023-04-24T03:08:51;100194.11;;;17.44;26.83
72486;BME280;60509;47.308;-122.428;2023-04-24T03:11:17;100191.89;;;17.21;26.64
72486;BME280;60509;47.308;-122.428;2023-04-24T03:13:43;100190.61;;;17.62;26.69
72486;BME280;60509;47.308;-122.428;2023-04-24T03:16:09;100192.60;;;17.59;26.69
72486;BME280;60509;47.308;-122.428;2023-04-24T03:18:35;100194.06;;;17.70;26.67
72486;BME280;60509;47.308;-122.428;2023-04-24T03:21:01;100196.33;;;17.84;26.46
72486;BME280;60509;47.308;-122.428;2023-04-24T03:23:27;100192.39;;;17.32;26.68
72486;BME280;60509;47.308;-122.428;2023-04-24T03:25:53;100192.77;;;17.23;26.83
72486;BME280;60509;47.308;-122.428;2023-04-24T03:28:19;100197.94;;;17.28;26.94
72486;BME280;60509;47.308;-122.428;2023-04-24T03:30:45;100208.03;;;17.21;27.43
72486;BME280;60509;47.308;-122.428;2023-04-24T03:33:11;100205.49;;;17.43;27.24
72486;BME280;60509;47.308;-122.428;2023-04-24T03:35:37;100205.95;;;17.80;27.08
72486;BME280;60509;47.308;-122.428;2023-04-24T03:38:03;100205.00;;;18.49;26.86
72486;BME280;60509;47.308;-122.428;2023-04-24T03:40:29;100208.82;;;19.01;26.94
72486;BME280;60509;47.308;-122.428;2023-04-24T03:42:55;100213.09;;;18.88;26.96
72486;BME280;60509;47.308;-122.428;2023-04-24T03:45:21;100219.67;;;18.48;27.73
72486;BME280;60509;47.308;-122.428;2023-04-24T03:47:47;100220.60;;;18.83;26.98
72486;BME280;60509;47.308;-122.428;2023-04-24T03:50:13;100226.57;;;18.55;27.48
72486;BME280;60509;47.308;-122.428;2023-04-24T03:52:39;100228.22;;;19.20;26.65
72486;BME280;60509;47.308;-122.428;2023-04-24T03:55:06;100234.59;;;18.60;27.36
72486;BME280;60509;47.308;-122.428;2023-04-24T03:57:31;100240.33;;;18.49;27.10
72486;BME280;60509;47.308;-122.428;2023-04-24T03:59:57;100240.35;;;19.04;26.82
72486;BME280;60509;47.308;-122.428;2023-04-24T04:02:23;100242.71;;;18.57;27.09
72486;BME280;60509;47.308;-122.428;2023-04-24T04:04:49;100239.72;;;18.91;26.96
72486;BME280;60509;47.308;-122.428;2023-04-24T04:07:15;100241.31;;;17.97;28.03
72486;BME280;60509;47.308;-122.428;2023-04-24T04:09:41;100239.19;;;17.89;28.28
72486;BME280;60509;47.308;-122.428;2023-04-24T04:12:07;100236.47;;;17.53;28.25
72486;BME280;60509;47.308;-122.428;2023-04-24T04:14:33;100235.88;;;17.46;28.39
72486;BME280;60509;47.308;-122.428;2023-04-24T04:16:59;100234.45;;;17.89;28.67
72486;BME280;60509;47.308;-122.428;2023-04-24T04:19:25;100233.21;;;17.42;28.74
72486;BME280;60509;47.308;-122.428;2023-04-24T04:21:51;100234.35;;;17.39;28.70
72486;BME280;60509;47.308;-122.428;2023-04-24T04:24:17;100233.55;;;17.27;28.83
72486;BME280;60509;47.308;-122.428;2023-04-24T04:26:43;100234.31;;;17.48;28.81
72486;BME280;60509;47.308;-122.428;2023-04-24T04:29:09;100237.30;;;17.43;28.78
72486;BME280;60509;47.308;-122.428;2023-04-24T04:31:35;100233.75;;;17.50;28.45
72486;BME280;60509;47.308;-122.428;2023-04-24T04:34:01;100234.83;;;15.01;29.47
72486;BME280;60509;47.308;-122.428;2023-04-24T04:36:27;100234.58;;;14.99;30.82
72486;BME280;60509;47.308;-122.428;2023-04-24T04:38:53;100231.00;;;14.86;31.19
72486;BME280;60509;47.308;-122.428;2023-04-24T04:41:19;100226.31;;;16.08;31.45
72486;BME280;60509;47.308;-122.428;2023-04-24T04:43:45;100227.59;;;17.33;30.08
72486;BME280;60509;47.308;-122.428;2023-04-24T04:46:11;100226.79;;;17.55;30.03
72486;BME280;60509;47.308;-122.428;2023-04-24T04:48:37;100226.15;;;16.36;31.26
72486;BME280;60509;47.308;-122.428;2023-04-24T04:51:03;100226.32;;;15.11;31.62
72486;BME280;60509;47.308;-122.428;2023-04-24T04:53:29;100223.89;;;16.76;31.08
72486;BME280;60509;47.308;-122.428;2023-04-24T04:55:55;100223.04;;;17.15;31.21
72486;BME280;60509;47.308;-122.428;2023-04-24T04:58:21;100221.32;;;17.57;30.29
72486;BME280;60509;47.308;-122.428;2023-04-24T05:00:47;100216.58;;;17.63;29.71
72486;BME280;60509;47.308;-122.428;2023-04-24T05:03:13;100222.81;;;17.66;30.21
72486;BME280;60509;47.308;-122.428;2023-04-24T05:05:39;100223.47;;;17.49;30.44
72486;BME280;60509;47.308;-122.428;2023-04-24T05:08:05;100221.54;;;17.54;30.42
72486;BME280;60509;47.308;-122.428;2023-04-24T05:10:31;100226.23;;;18.23;29.35
72486;BME280;60509;47.308;-122.428;2023-04-24T05:12:57;100227.11;;;18.16;29.49
72486;BME280;60509;47.308;-122.428;2023-04-24T05:15:23;100228.17;;;18.19;29.48
72486;BME280;60509;47.308;-122.428;2023-04-24T05:17:49;100233.95;;;18.78;29.32
72486;BME280;60509;47.308;-122.428;2023-04-24T05:20:15;100234.52;;;18.21;29.32
72486;BME280;60509;47.308;-122.428;2023-04-24T05:22:41;100233.25;;;17.97;29.16
72486;BME280;60509;47.308;-122.428;2023-04-24T05:25:07;100233.48;;;18.16;29.29
72486;BME280;60509;47.308;-122.428;2023-04-24T05:27:33;100238.43;;;16.18;30.72
72486;BME280;60509;47.308;-122.428;2023-04-24T05:29:59;100240.35;;;16.33;30.42
72486;BME280;60509;47.308;-122.428;2023-04-24T05:32:25;100235.34;;;17.40;29.41
72486;BME280;60509;47.308;-122.428;2023-04-24T05:34:51;100240.94;;;16.45;30.33
72486;BME280;60509;47.308;-122.428;2023-04-24T05:37:17;100243.42;;;17.04;30.14
72486;BME280;60509;47.308;-122.428;2023-04-24T05:39:43;100239.66;;;18.08;28.59
72486;BME280;60509;47.308;-122.428;2023-04-24T05:42:09;100242.77;;;18.34;28.20
72486;BME280;60509;47.308;-122.428;2023-04-24T05:44:35;100241.48;;;18.13;28.27
72486;BME280;60509;47.308;-122.428;2023-04-24T05:47:01;100239.28;;;18.26;28.66
72486;BME280;60509;47.308;-122.428;2023-04-24T05:49:27;100239.10;;;18.35;28.71
72486;BME280;60509;47.308;-122.428;2023-04-24T05:51:52;100238.50;;;18.34;28.45
72486;BME280;60509;47.308;-122.428;2023-04-24T05:54:18;100239.77;;;18.51;28.36
72486;BME280;60509;47.308;-122.428;2023-04-24T05:56:44;100240.44;;;18.50;28.35
72486;BME280;60509;47.308;-122.428;2023-04-24T05:59:10;100238.20;;;19.20;28.04
72486;BME280;60509;47.308;-122.428;2023-04-24T06:01:36;100237.47;;;18.92;28.28
72486;BME280;60509;47.308;-122.428;2023-04-24T06:04:03;100243.57;;;17.44;28.89
72486;BME280;60509;47.308;-122.428;2023-04-24T06:06:28;100238.04;;;18.19;28.15
72486;BME280;60509;47.308;-122.428;2023-04-24T06:08:54;100239.52;;;17.86;28.15
72486;BME280;60509;47.308;-122.428;2023-04-24T06:11:20;100234.75;;;17.66;28.53
72486;BME280;60509;47.308;-122.428;2023-04-24T06:13:46;100234.01;;;19.12;27.87
72486;BME280;60509;47.308;-122.428;2023-04-24T06:16:12;100235.68;;;19.20;27.97
72486;BME280;60509;47.308;-122.428;2023-04-24T06:18:38;100238.77;;;18.23;28.65
72486;BME280;60509;47.308;-122.428;2023-04-24T06:21:04;100237.03;;;18.06;28.90
72486;BME280;60509;47.308;-122.428;2023-04-24T06:23:30;100239.78;;;18.65;28.51
72486;BME280;60509;47.308;-122.428;2023-04-24T06:25:56;100238.51;;;19.42;28.24
72486;BME280;60509;47.308;-122.428;2023-04-24T06:28:22;100239.78;;;19.14;28.39
72486;BME280;60509;47.308;-122.428;2023-04-24T06:30:48;100244.90;;;19.01;28.66
72486;BME280;60509;47.308;-122.428;2023-04-24T06:33:14;100248.89;;;17.94;29.32
72486;BME280;60509;47.308;-122.428;2023-04-24T06:35:40;100246.92;;;18.42;28.87
72486;BME280;60509;47.308;-122.428;2023-04-24T06:38:06;100250.66;;;19.51;27.72
72486;BME280;60509;47.308;-122.428;2023-04-24T06:40:32;100250.23;;;19.85;27.41
72486;BME280;60509;47.308;-122.428;2023-04-24T06:42:58;100247.65;;;19.88;27.40
72486;BME280;60509;47.308;-122.428;2023-04-24T06:45:24;100255.54;;;18.64;28.85
72486;BME280;60509;47.308;-122.428;2023-04-24T06:47:50;100257.79;;;19.32;28.23
72486;BME280;60509;47.308;-122.428;2023-04-24T06:50:16;100260.67;;;19.20;28.43
72486;BME280;60509;47.308;-122.428;2023-04-24T06:52:41;100262.26;;;18.75;28.61
72486;BME280;60509;47.308;-122.428;2023-04-24T06:55:08;100259.49;;;18.65;28.31
72486;BME280;60509;47.308;-122.428;2023-04-24T06:57:33;100264.14;;;18.75;28.16
72486;BME280;60509;47.308;-122.428;2023-04-24T06:59:59;100260.79;;;18.68;28.10
72486;BME280;60509;47.308;-122.428;2023-04-24T07:02:25;100262.05;;;19.30;27.85
72486;BME280;60509;47.308;-122.428;2023-04-24T07:04:51;100261.23;;;18.81;28.27
72486;BME280;60509;47.308;-122.428;2023-04-24T07:07:17;100263.72;;;18.91;27.83
72486;BME280;60509;47.308;-122.428;2023-04-24T07:09:43;100269.29;;;18.99;27.84
72486;BME280;60509;47.308;-122.428;2023-04-24T07:12:09;100270.86;;;18.62;27.99
72486;BME280;60509;47.308;-122.428;2023-04-24T07:14:35;100274.11;;;18.56;27.86
72486;BME280;60509;47.308;-122.428;2023-04-24T07:17:02;100271.84;;;18.22;28.34
72486;BME280;60509;47.308;-122.428;2023-04-24T07:19:27;100274.65;;;18.49;27.99
72486;BME280;60509;47.308;-122.428;2023-04-24T07:21:53;100275.84;;;18.77;27.79
72486;BME280;60509;47.308;-122.428;2023-04-24T07:24:19;100281.89;;;18.81;27.63
72486;BME280;60509;47.308;-122.428;2023-04-24T07:26:45;100287.29;;;18.20;28.52
72486;BME280;60509;47.308;-122.428;2023-04-24T07:29:11;100289.23;;;18.60;28.09
72486;BME280;60509;47.308;-122.428;2023-04-24T07:31:37;100300.89;;;18.42;28.48
72486;BME280;60509;47.308;-122.428;2023-04-24T07:34:02;100305.06;;;17.41;28.83
72486;BME280;60509;47.308;-122.428;2023-04-24T07:36:28;100313.31;;;17.97;28.57
72486;BME280;60509;47.308;-122.428;2023-04-24T07:38:55;100317.64;;;18.17;28.57
72486;BME280;60509;47.308;-122.428;2023-04-24T07:41:20;100320.68;;;17.69;28.66
72486;BME280;60509;47.308;-122.428;2023-04-24T07:43:46;100323.81;;;18.77;28.24
72486;BME280;60509;47.308;-122.428;2023-04-24T07:46:12;100323.85;;;18.48;28.28
72486;BME280;60509;47.308;-122.428;2023-04-24T07:48:38;100325.26;;;18.35;28.18
72486;BME280;60509;47.308;-122.428;2023-04-24T07:51:04;100327.37;;;17.99;28.44
72486;BME280;60509;47.308;-122.428;2023-04-24T07:53:31;100330.39;;;18.13;28.24
72486;BME280;60509;47.308;-122.428;2023-04-24T07:55:56;100335.85;;;18.21;28.16
72486;BME280;60509;47.308;-122.428;2023-04-24T07:58:22;100338.16;;;18.41;28.00
72486;BME280;60509;47.308;-122.428;2023-04-24T08:00:48;100341.06;;;18.27;28.47
72486;BME280;60509;47.308;-122.428;2023-04-24T08:03:15;100342.10;;;18.45;27.94
72486;BME280;60509;47.308;-122.428;2023-04-24T08:05:41;100342.01;;;18.39;28.16
72486;BME280;60509;47.308;-122.428;2023-04-24T08:08:06;100348.85;;;18.28;27.90
72486;BME280;60509;47.308;-122.428;2023-04-24T08:10:32;100348.53;;;18.12;28.02
72486;BME280;60509;47.308;-122.428;2023-04-24T08:12:58;100348.65;;;18.24;27.97
72486;BME280;60509;47.308;-122.428;2023-04-24T08:15:24;100347.41;;;17.74;28.28
72486;BME280;60509;47.308;-122.428;2023-04-24T08:17:50;100354.43;;;18.60;27.89
72486;BME280;60509;47.308;-122.428;2023-04-24T08:20:16;100353.00;;;17.61;28.19
72486;BME280;60509;47.308;-122.428;2023-04-24T08:22:42;100352.60;;;17.76;27.97
72486;BME280;60509;47.308;-122.428;2023-04-24T08:25:09;100357.41;;;17.82;27.82
72486;BME280;60509;47.308;-122.428;2023-04-24T08:27:34;100356.17;;;18.49;27.94
72486;BME280;60509;47.308;-122.428;2023-04-24T08:30:00;100356.68;;;18.01;27.97
72486;BME280;60509;47.308;-122.428;2023-04-24T08:32:26;100362.74;;;18.39;27.83
72486;BME280;60509;47.308;-122.428;2023-04-24T08:34:52;100361.17;;;18.30;27.85
72486;BME280;60509;47.308;-122.428;2023-04-24T08:37:18;100358.64;;;17.69;28.39
72486;BME280;60509;47.308;-122.428;2023-04-24T08:39:44;100359.08;;;17.64;28.27
72486;BME280;60509;47.308;-122.428;2023-04-24T08:42:11;100355.04;;;17.79;27.86
72486;BME280;60509;47.308;-122.428;2023-04-24T08:44:36;100354.37;;;18.21;27.46
72486;BME280;60509;47.308;-122.428;2023-04-24T08:47:03;100354.25;;;18.59;27.46
72486;BME280;60509;47.308;-122.428;2023-04-24T08:49:29;100353.95;;;18.55;27.21
72486;BME280;60509;47.308;-122.428;2023-04-24T08:51:54;100352.24;;;18.20;27.63
72486;BME280;60509;47.308;-122.428;2023-04-24T08:54:20;100353.79;;;18.36;27.75
72486;BME280;60509;47.308;-122.428;2023-04-24T08:56:48;100356.06;;;18.51;27.48
72486;BME280;60509;47.308;-122.428;2023-04-24T08:59:12;100353.75;;;18.18;27.70
72486;BME280;60509;47.308;-122.428;2023-04-24T09:01:38;100352.63;;;18.38;27.69
72486;BME280;60509;47.308;-122.428;2023-04-24T09:04:04;100350.29;;;18.35;27.79
72486;BME280;60509;47.308;-122.428;2023-04-24T09:06:30;100349.05;;;17.66;28.02
72486;BME280;60509;47.308;-122.428;2023-04-24T09:08:56;100350.35;;;18.15;27.81
72486;BME280;60509;47.308;-122.428;2023-04-24T09:11:22;100350.45;;;17.65;27.70
72486;BME280;60509;47.308;-122.428;2023-04-24T09:13:48;100350.66;;;17.65;27.77
72486;BME280;60509;47.308;-122.428;2023-04-24T09:16:14;100347.36;;;17.44;27.75
72486;BME280;60509;47.308;-122.428;2023-04-24T09:18:39;100341.08;;;17.66;27.75
72486;BME280;60509;47.308;-122.428;2023-04-24T09:21:08;100337.90;;;18.17;27.39
72486;BME280;60509;47.308;-122.428;2023-04-24T09:23:32;100337.93;;;18.71;27.04
72486;BME280;60509;47.308;-122.428;2023-04-24T09:25:59;100339.77;;;18.49;27.42
72486;BME280;60509;47.308;-122.428;2023-04-24T09:28:27;100344.08;;;17.60;27.51
72486;BME280;60509;47.308;-122.428;2023-04-24T09:31:03;100348.39;;;18.09;27.38
72486;BME280;60509;47.308;-122.428;2023-04-24T09:33:16;100350.80;;;17.84;27.35
72486;BME280;60509;47.308;-122.428;2023-04-24T09:35:42;100350.71;;;18.24;27.16
72486;BME280;60509;47.308;-122.428;2023-04-24T09:38:07;100355.29;;;17.24;27.40
72486;BME280;60509;47.308;-122.428;2023-04-24T09:40:34;100358.22;;;17.36;27.45
72486;BME280;60509;47.308;-122.428;2023-04-24T09:42:59;100366.99;;;17.38;27.65
72486;BME280;60509;47.308;-122.428;2023-04-24T09:45:28;100367.97;;;17.24;27.68
72486;BME280;60509;47.308;-122.428;2023-04-24T09:47:52;100371.44;;;17.02;27.60
72486;BME280;60509;47.308;-122.428;2023-04-24T09:50:17;100372.58;;;17.39;27.59
72486;BME280;60509;47.308;-122.428;2023-04-24T09:52:45;100375.66;;;17.93;27.50
72486;BME280;60509;47.308;-122.428;2023-04-24T09:55:18;100374.33;;;18.18;27.22
72486;BME280;60509;47.308;-122.428;2023-04-24T09:57:35;100378.19;;;19.03;26.48
72486;BME280;60509;47.308;-122.428;2023-04-24T10:00:01;100384.06;;;18.80;26.74
72486;BME280;60509;47.308;-122.428;2023-04-24T10:02:27;100389.81;;;17.86;27.06
72486;BME280;60509;47.308;-122.428;2023-04-24T10:04:57;100392.27;;;17.99;27.16
72486;BME280;60509;47.308;-122.428;2023-04-24T10:07:19;100397.98;;;17.41;27.18
72486;BME280;60509;47.308;-122.428;2023-04-24T10:09:45;100398.40;;;18.02;27.09
72486;BME280;60509;47.308;-122.428;2023-04-24T10:12:11;100405.44;;;17.67;27.17
72486;BME280;60509;47.308;-122.428;2023-04-24T10:14:37;100405.56;;;17.68;26.93
72486;BME280;60509;47.308;-122.428;2023-04-24T10:17:03;100409.17;;;17.99;27.02
72486;BME280;60509;47.308;-122.428;2023-04-24T10:19:30;100417.67;;;18.03;26.89
72486;BME280;60509;47.308;-122.428;2023-04-24T10:21:56;100428.08;;;17.29;27.28
72486;BME280;60509;47.308;-122.428;2023-04-24T10:24:21;100427.49;;;17.80;26.89
72486;BME280;60509;47.308;-122.428;2023-04-24T10:26:47;100428.35;;;17.49;27.14
72486;BME280;60509;47.308;-122.428;2023-04-24T10:29:15;100433.94;;;17.89;26.87
72486;BME280;60509;47.308;-122.428;2023-04-24T10:31:40;100433.27;;;18.52;26.36
72486;BME280;60509;47.308;-122.428;2023-04-24T10:34:05;100435.12;;;17.90;26.82
72486;BME280;60509;47.308;-122.428;2023-04-24T10:36:31;100442.67;;;17.65;26.91
72486;BME280;60509;47.308;-122.428;2023-04-24T10:38:58;100441.25;;;17.41;26.84
72486;BME280;60509;47.308;-122.428;2023-04-24T10:41:26;100439.93;;;17.68;26.73
72486;BME280;60509;47.308;-122.428;2023-04-24T10:43:58;100442.14;;;17.75;26.74
72486;BME280;60509;47.308;-122.428;2023-04-24T10:46:20;100440.43;;;17.65;26.54
72486;BME280;60509;47.308;-122.428;2023-04-24T10:48:43;100445.46;;;17.67;26.72
72486;BME280;60509;47.308;-122.428;2023-04-24T10:51:06;100442.70;;;17.78;26.69
72486;BME280;60509;47.308;-122.428;2023-04-24T10:53:35;100444.97;;;17.44;26.91
72486;BME280;60509;47.308;-122.428;2023-04-24T10:56:02;100446.43;;;18.18;26.55
72486;BME280;60509;47.308;-122.428;2023-04-24T10:58:35;100454.22;;;18.09;26.41
72486;BME280;60509;47.308;-122.428;2023-04-24T11:00:57;100457.32;;;18.19;26.60
72486;BME280;60509;47.308;-122.428;2023-04-24T11:03:25;100459.40;;;17.83;26.49
72486;BME280;60509;47.308;-122.428;2023-04-24T11:06:00;100464.21;;;17.89;26.62
72486;BME280;60509;47.308;-122.428;2023-04-24T11:08:12;100467.30;;;17.96;26.55
72486;BME280;60509;47.308;-122.428;2023-04-24T11:10:34;100465.29;;;17.95;26.40
72486;BME280;60509;47.308;-122.428;2023-04-24T11:13:02;100470.25;;;17.69;26.35
72486;BME280;60509;47.308;-122.428;2023-04-24T11:15:26;100466.10;;;17.79;26.41
72486;BME280;60509;47.308;-122.428;2023-04-24T11:17:56;100468.19;;;17.99;26.27
72486;BME280;60509;47.308;-122.428;2023-04-24T11:20:18;100461.33;;;17.51;26.63
72486;BME280;60509;47.308;-122.428;2023-04-24T11:22:44;100467.37;;;18.36;26.18
72486;BME280;60509;47.308;-122.428;2023-04-24T11:25:10;100463.30;;;17.64;26.28
72486;BME280;60509;47.308;-122.428;2023-04-24T11:27:40;100463.06;;;17.72;26.38
72486;BME280;60509;47.308;-122.428;2023-04-24T11:30:03;100468.00;;;17.39;26.57
72486;BME280;60509;47.308;-122.428;2023-04-24T11:32:29;100474.08;;;17.84;26.49
72486;BME280;60509;47.308;-122.428;2023-04-24T11:34:55;100471.84;;;17.48;26.50
72486;BME280;60509;47.308;-122.428;2023-04-24T11:37:22;100473.53;;;17.57;26.51
72486;BME280;60509;47.308;-122.428;2023-04-24T11:39:45;100468.72;;;17.49;26.63
72486;BME280;60509;47.308;-122.428;2023-04-24T11:42:15;100468.04;;;18.13;26.15
72486;BME280;60509;47.308;-122.428;2023-04-24T11:44:38;100473.64;;;17.61;26.51
72486;BME280;60509;47.308;-122.428;2023-04-24T11:47:04;100475.60;;;18.20;26.27
72486;BME280;60509;47.308;-122.428;2023-04-24T11:49:29;100478.86;;;18.26;26.06
72486;BME280;60509;47.308;-122.428;2023-04-24T11:51:56;100484.16;;;17.90;26.26
72486;BME280;60509;47.308;-122.428;2023-04-24T11:54:21;100486.81;;;17.71;26.41
72486;BME280;60509;47.308;-122.428;2023-04-24T11:56:48;100494.40;;;17.38;26.65
72486;BME280;60509;47.308;-122.428;2023-04-24T11:59:14;100489.38;;;17.35;26.70
72486;BME280;60509;47.308;-122.428;2023-04-24T12:01:44;100497.22;;;17.07;26.76
72486;BME280;60509;47.308;-122.428;2023-04-24T12:04:05;100501.73;;;17.49;26.67
72486;BME280;60509;47.308;-122.428;2023-04-24T12:06:31;100507.27;;;17.02;26.83
72486;BME280;60509;47.308;-122.428;2023-04-24T12:08:57;100513.43;;;18.05;26.22
72486;BME280;60509;47.308;-122.428;2023-04-24T12:11:22;100516.89;;;17.75;26.49
72486;BME280;60509;47.308;-122.428;2023-04-24T12:13:48;100524.44;;;17.74;26.34